Time,TemperatureF,DewpointF,PressureIn,WindDirection,WindDirectionDegrees,WindSpeedMPH,WindSpeedGustMPH,Humidity,HourlyPrecipIn,Conditions,Clouds,dailyrainin,SoftwareType,DateUTC
2013-05-07 00:02:00,60.7,40.3,30.03,East,85,0.0,0.0,47,0.00,OVC,,0.00,WeatherDisplay:10.37,2013-05-07 05:02:00,
2013-05-07 00:07:00,60.3,40.0,30.03,East,85,0.0,0.0,47,0.00,OVC,,0.00,WeatherDisplay:10.37,2013-05-07 05:07:00,
2013-05-07 00:12:00,60.2,39.9,30.03,East,85,0.0,0.0,47,0.00,OVC,,0.00,WeatherDisplay:10.37,2013-05-07 05:12:00,
2013-05-07 00:17:00,60.2,39.9,30.03,East,85,0.0,0.0,47,0.00,OVC,,0.00,WeatherDisplay:10.37,2013-05-07 05:17:00,
2013-05-07 00:22:00,60.2,39.9,30.02,East,85,0.0,0.0,47,0.00,OVC,,0.00,WeatherDisplay:10.37,2013-05-07 05:22:00,
2013-05-07 00:27:00,60.1,39.8,30.02,East,85,0.0,0.0,47,0.00,OVC,,0.00,WeatherDisplay:10.37,2013-05-07 05:27:00,
2013-05-07 00:32:00,60.1,40.3,30.02,East,85,0.0,0.0,48,0.00,OVC,,0.00,WeatherDisplay:10.37,2013-05-07 05:32:00,
2013-05-07 00:37:00,59.8,40.1,30.02,East,85,0.0,0.0,48,0.00,OVC,,0.00,WeatherDisplay:10.37,2013-05-07 05:37:00,
2013-05-07 00:42:00,59.7,40.0,30.02,East,85,0.0,0.0,48,0.00,OVC,,0.00,WeatherDisplay:10.37,2013-05-07 05:42:00,
2013-05-07 00:47:00,59.5,39.8,30.02,East,85,0.0,0.0,48,0.00,OVC,,0.00,WeatherDisplay:10.37,2013-05-07 05:47:00,
2013-05-07 00:52:00,59.4,39.7,30.02,East,85,0.0,0.0,48,0.00,OVC,,0.00,WeatherDisplay:10.37,2013-05-07 05:52:00,
2013-05-07 00:57:00,59.5,39.8,30.02,East,85,0.0,0.0,48,0.00,OVC,,0.00,WeatherDisplay:10.37,2013-05-07 05:57:00,
2013-05-07 01:02:00,59.0,40.4,30.02,East,85,0.0,0.0,50,0.00,OVC,,0.00,WeatherDisplay:10.37,2013-05-07 06:02:00,
2013-05-07 01:07:00,58.5,41.4,30.03,East,85,0.0,0.0,53,0.00,OVC,,0.00,WeatherDisplay:10.37,2013-05-07 06:07:00,
2013-05-07 01:12:00,57.5,42.8,30.03,East,82,0.0,0.0,58,0.00,OVC,,0.00,WeatherDisplay:10.37,2013-05-07 06:12:00,
2013-05-07 01:17:00,56.6,42.9,30.03,East,82,0.0,0.0,60,0.00,OVC,,0.00,WeatherDisplay:10.37,2013-05-07 06:17:00,
2013-05-07 01:22:00,56.0,43.6,30.03,ENE,64,0.1,0.7,63,0.00,OVC,,0.00,WeatherDisplay:10.37,2013-05-07 06:22:00,
2013-05-07 01:27:00,55.5,44.7,30.03,ENE,64,0.0,0.0,67,0.00,OVC,,0.00,WeatherDisplay:10.37,2013-05-07 06:27:00,
2013-05-07 01:32:00,55.1,43.9,30.03,ENE,64,0.0,0.0,66,0.00,OVC,,0.00,WeatherDisplay:10.37,2013-05-07 06:32:00,
2013-05-07 01:37:00,55.0,44.6,30.03,ENE,64,0.0,0.0,68,0.00,OVC,,0.00,WeatherDisplay:10.37,2013-05-07 06:37:00,
2013-05-07 01:42:00,54.9,44.5,30.03,ENE,64,0.0,0.0,68,0.00,OVC,,0.00,WeatherDisplay:10.37,2013-05-07 06:42:00,
2013-05-07 01:47:00,55.2,44.0,30.03,ENE,64,0.0,0.0,66,0.00,OVC,,0.00,WeatherDisplay:10.37,2013-05-07 06:47:00,
2013-05-07 01:52:00,55.7,44.1,30.03,ENE,64,0.0,0.0,65,0.00,OVC,,0.00,WeatherDisplay:10.37,2013-05-07 06:52:00,
2013-05-07 01:57:00,56.0,44.4,30.03,ENE,64,0.0,0.0,65,0.00,OVC,,0.00,WeatherDisplay:10.37,2013-05-07 06:57:00,
2013-05-07 02:02:00,55.7,44.5,30.03,ENE,74,0.0,0.0,66,0.00,OVC,,0.00,WeatherDisplay:10.37,2013-05-07 07:02:00,
2013-05-07 02:07:00,55.4,45.0,30.03,ENE,74,0.0,0.0,68,0.00,OVC,,0.00,WeatherDisplay:10.37,2013-05-07 07:07:00,
2013-05-07 02:12:00,55.0,45.4,30.03,ENE,74,0.0,0.0,70,0.00,OVC,,0.00,WeatherDisplay:10.37,2013-05-07 07:12:00,
2013-05-07 02:17:00,54.6,45.4,30.03,ENE,74,0.0,0.0,71,0.00,OVC,,0.00,WeatherDisplay:10.37,2013-05-07 07:17:00,
2013-05-07 02:22:00,54.4,45.9,30.03,ENE,74,0.0,0.0,73,0.00,OVC,,0.00,WeatherDisplay:10.37,2013-05-07 07:22:00,
2013-05-07 02:27:00,54.4,46.3,30.03,ENE,74,0.0,0.0,74,0.00,OVC,,0.00,WeatherDisplay:10.37,2013-05-07 07:27:00,
2013-05-07 02:32:00,54.7,45.8,30.03,ENE,74,0.0,0.0,72,0.00,OVC,,0.00,WeatherDisplay:10.37,2013-05-07 07:32:00,
2013-05-07 02:37:00,55.3,45.7,30.03,ENE,74,0.0,0.0,70,0.00,OVC,,0.00,WeatherDisplay:10.37,2013-05-07 07:37:00,
2013-05-07 02:42:00,55.7,44.9,30.03,ENE,74,0.0,0.0,67,0.00,OVC,,0.00,WeatherDisplay:10.37,2013-05-07 07:42:00,
2013-05-07 02:47:00,56.2,44.6,30.03,ENE,74,0.0,0.0,65,0.00,OVC,,0.00,WeatherDisplay:10.37,2013-05-07 07:47:00,
2013-05-07 02:52:00,56.6,44.6,30.03,ENE,74,0.0,0.0,64,0.00,OVC,,0.00,WeatherDisplay:10.37,2013-05-07 07:52:00,
2013-05-07 02:57:00,56.8,43.9,30.03,ENE,74,0.0,0.0,62,0.00,OVC,,0.00,WeatherDisplay:10.37,2013-05-07 07:57:00,
2013-05-07 03:02:00,56.9,44.0,30.03,ENE,74,0.0,0.0,62,0.00,OVC,,0.00,WeatherDisplay:10.37,2013-05-07 08:02:00,
2013-05-07 03:07:00,56.8,43.9,30.03,ENE,74,0.0,0.0,62,0.00,OVC,,0.00,WeatherDisplay:10.37,2013-05-07 08:07:00,
2013-05-07 03:12:00,56.6,43.7,30.03,ENE,74,0.0,0.0,62,0.00,OVC,,0.00,WeatherDisplay:10.37,2013-05-07 08:12:00,
2013-05-07 03:17:00,56.5,44.0,30.03,ENE,74,0.0,0.0,63,0.00,OVC,,0.00,WeatherDisplay:10.37,2013-05-07 08:17:00,
2013-05-07 03:22:00,56.2,43.8,30.03,ENE,74,0.0,0.0,63,0.00,OVC,,0.00,WeatherDisplay:10.37,2013-05-07 08:22:00,
2013-05-07 03:27:00,56.0,43.2,30.03,ENE,74,0.0,0.0,62,0.00,OVC,,0.00,WeatherDisplay:10.37,2013-05-07 08:27:00,
2013-05-07 03:32:00,56.0,43.2,30.03,ENE,74,0.0,0.0,62,0.00,OVC,,0.00,WeatherDisplay:10.37,2013-05-07 08:32:00,
2013-05-07 03:37:00,56.0,43.2,30.03,ENE,74,0.0,0.0,62,0.00,OVC,,0.00,WeatherDisplay:10.37,2013-05-07 08:37:00,
2013-05-07 03:42:00,56.0,43.2,30.03,ENE,74,0.0,0.0,62,0.00,OVC,,0.00,WeatherDisplay:10.37,2013-05-07 08:42:00,
2013-05-07 03:47:00,55.7,43.3,30.03,ENE,74,0.0,0.0,63,0.00,OVC,,0.00,WeatherDisplay:10.37,2013-05-07 08:47:00,
2013-05-07 03:52:00,55.8,43.0,30.03,ENE,74,0.0,0.0,62,0.00,OVC,,0.00,WeatherDisplay:10.37,2013-05-07 08:52:00,
2013-05-07 03:57:00,55.8,42.5,30.03,ENE,74,0.0,0.0,61,0.00,OVC,,0.00,WeatherDisplay:10.37,2013-05-07 08:57:00,
2013-05-07 04:02:00,55.9,42.2,30.03,ENE,74,0.0,0.0,60,0.00,OVC,,0.00,WeatherDisplay:10.37,2013-05-07 09:02:00,
2013-05-07 04:07:00,56.1,42.0,30.03,ENE,74,0.0,0.0,59,0.00,OVC,,0.00,WeatherDisplay:10.37,2013-05-07 09:07:00,
2013-05-07 04:12:00,56.4,41.8,30.03,ENE,74,0.0,0.0,58,0.00,OVC,,0.00,WeatherDisplay:10.37,2013-05-07 09:12:00,
2013-05-07 04:17:00,56.5,41.9,30.03,ENE,74,0.0,0.0,58,0.00,OVC,,0.00,WeatherDisplay:10.37,2013-05-07 09:17:00,
2013-05-07 04:22:00,56.4,41.3,30.03,ENE,74,0.0,0.0,57,0.00,OVC,,0.00,WeatherDisplay:10.37,2013-05-07 09:22:00,
2013-05-07 04:27:00,56.4,41.3,30.03,ENE,74,0.0,0.0,57,0.00,OVC,,0.00,WeatherDisplay:10.37,2013-05-07 09:27:00,
2013-05-07 04:32:00,56.4,41.3,30.03,ENE,74,0.0,0.0,57,0.00,OVC,,0.00,WeatherDisplay:10.37,2013-05-07 09:32:00,
2013-05-07 04:37:00,56.5,41.4,30.03,ENE,74,0.0,0.0,57,0.00,OVC,,0.00,WeatherDisplay:10.37,2013-05-07 09:37:00,
2013-05-07 04:42:00,56.3,41.7,30.03,ENE,74,0.0,0.0,58,0.00,OVC,,0.00,WeatherDisplay:10.37,2013-05-07 09:42:00,
2013-05-07 04:47:00,56.3,42.1,30.03,ENE,74,0.0,0.0,59,0.00,OVC,,0.00,WeatherDisplay:10.37,2013-05-07 09:47:00,
2013-05-07 04:52:00,56.0,42.7,30.03,ENE,74,0.0,0.0,61,0.00,OVC,,0.00,WeatherDisplay:10.37,2013-05-07 09:52:00,
2013-05-07 04:57:00,55.6,43.2,30.03,ENE,74,0.0,0.0,63,0.00,OVC,,0.00,WeatherDisplay:10.37,2013-05-07 09:57:00,
2013-05-07 05:02:00,55.4,43.4,30.03,ENE,74,0.0,0.0,64,0.00,OVC,,0.00,WeatherDisplay:10.37,2013-05-07 10:02:00,
2013-05-07 05:07:00,55.1,43.9,30.03,ENE,74,0.0,0.0,66,0.00,OVC,,0.00,WeatherDisplay:10.37,2013-05-07 10:07:00,
2013-05-07 05:12:00,55.0,44.2,30.04,ENE,74,0.0,0.0,67,0.00,OVC,,0.00,WeatherDisplay:10.37,2013-05-07 10:12:00,
2013-05-07 05:17:00,54.7,44.3,30.03,ENE,74,0.0,0.0,68,0.00,OVC,,0.00,WeatherDisplay:10.37,2013-05-07 10:17:00,
2013-05-07 05:22:00,54.5,44.2,30.03,ENE,74,0.0,0.0,68,0.00,OVC,,0.00,WeatherDisplay:10.37,2013-05-07 10:22:00,
2013-05-07 05:27:00,54.5,44.2,30.03,ENE,74,0.0,0.0,68,0.00,OVC,,0.00,WeatherDisplay:10.37,2013-05-07 10:27:00,
2013-05-07 05:32:00,54.4,43.7,30.03,ENE,74,0.0,0.0,67,0.00,OVC,,0.00,WeatherDisplay:10.37,2013-05-07 10:32:00,
2013-05-07 05:37:00,54.4,43.3,30.04,ENE,74,0.0,0.0,66,0.00,OVC,,0.00,WeatherDisplay:10.37,2013-05-07 10:37:00,
2013-05-07 05:42:00,54.4,43.3,30.04,ENE,74,0.0,0.0,66,0.00,OVC,,0.00,WeatherDisplay:10.37,2013-05-07 10:42:00,
2013-05-07 05:47:00,54.7,41.9,30.04,ENE,74,0.0,0.0,62,0.00,OVC,,0.00,WeatherDisplay:10.37,2013-05-07 10:47:00,
2013-05-07 05:52:00,55.5,41.4,30.04,ENE,74,0.0,0.0,59,0.00,OVC,,0.00,WeatherDisplay:10.37,2013-05-07 10:52:00,
2013-05-07 05:57:00,56.2,41.2,30.04,ENE,74,0.0,0.0,57,0.00,OVC,,0.00,WeatherDisplay:10.37,2013-05-07 10:57:00,
2013-05-07 06:02:00,56.9,41.4,30.04,ENE,74,0.0,0.0,56,0.00,BKN,,0.00,WeatherDisplay:10.37,2013-05-07 11:02:00,
2013-05-07 06:07:00,57.1,41.5,30.04,ENE,74,0.0,0.0,56,0.00,BKN,,0.00,WeatherDisplay:10.37,2013-05-07 11:07:00,
2013-05-07 06:12:00,57.4,41.8,30.04,ENE,74,0.0,0.0,56,0.00,BKN,,0.00,WeatherDisplay:10.37,2013-05-07 11:12:00,
2013-05-07 06:17:00,57.7,42.1,30.04,ENE,74,0.0,0.0,56,0.00,BKN,,0.00,WeatherDisplay:10.37,2013-05-07 11:17:00,
2013-05-07 06:22:00,57.8,42.2,30.04,ENE,74,0.0,0.0,56,0.00,BKN,,0.00,WeatherDisplay:10.37,2013-05-07 11:22:00,
2013-05-07 06:27:00,57.8,42.7,30.04,ENE,74,0.0,0.0,57,0.00,BKN,,0.00,WeatherDisplay:10.37,2013-05-07 11:27:00,
2013-05-07 06:32:00,57.7,43.0,30.04,ENE,74,0.0,0.0,58,0.00,BKN,,0.00,WeatherDisplay:10.37,2013-05-07 11:32:00,
2013-05-07 06:37:00,57.3,42.6,30.04,ENE,74,0.0,0.0,58,0.00,BKN,,0.00,WeatherDisplay:10.37,2013-05-07 11:37:00,
2013-05-07 06:42:00,57.2,43.9,30.05,ENE,74,0.0,0.0,61,0.00,BKN,,0.00,WeatherDisplay:10.37,2013-05-07 11:42:00,
2013-05-07 06:47:00,56.9,44.0,30.05,ENE,74,0.0,0.0,62,0.00,BKN,,0.00,WeatherDisplay:10.37,2013-05-07 11:47:00,
2013-05-07 06:52:00,56.8,44.7,30.05,ENE,74,0.0,0.0,64,0.00,BKN,,0.00,WeatherDisplay:10.37,2013-05-07 11:52:00,
2013-05-07 06:57:00,56.6,44.6,30.05,ENE,74,0.0,0.0,64,0.00,BKN,,0.00,WeatherDisplay:10.37,2013-05-07 11:57:00,
2013-05-07 07:02:00,56.5,45.3,30.05,ENE,74,0.0,0.0,66,0.00,BKN,,0.00,WeatherDisplay:10.37,2013-05-07 12:02:00,
2013-05-07 07:07:00,56.5,46.1,30.05,ENE,74,0.0,0.0,68,0.00,BKN,,0.00,WeatherDisplay:10.37,2013-05-07 12:07:00,
2013-05-07 07:12:00,56.7,46.6,30.06,ENE,74,0.0,0.0,69,0.00,BKN,,0.00,WeatherDisplay:10.37,2013-05-07 12:12:00,
2013-05-07 07:17:00,56.9,46.8,30.06,ENE,74,0.0,0.0,69,0.00,BKN,,0.00,WeatherDisplay:10.37,2013-05-07 12:17:00,
2013-05-07 07:22:00,57.4,46.9,30.06,ENE,74,0.0,0.0,68,0.00,BKN,,0.00,WeatherDisplay:10.37,2013-05-07 12:22:00,
2013-05-07 07:27:00,58.2,47.7,30.06,ENE,74,0.0,0.0,68,0.00,BKN,,0.00,WeatherDisplay:10.37,2013-05-07 12:27:00,
2013-05-07 07:32:00,59.0,47.7,30.06,ENE,74,0.0,0.0,66,0.00,BKN,,0.00,WeatherDisplay:10.37,2013-05-07 12:32:00,
2013-05-07 07:37:00,59.7,46.2,30.06,ENE,74,0.0,0.0,61,0.00,BKN,,0.00,WeatherDisplay:10.37,2013-05-07 12:37:00,
2013-05-07 07:42:00,60.5,45.6,30.06,ENE,74,0.0,0.0,58,0.00,BKN,,0.00,WeatherDisplay:10.37,2013-05-07 12:42:00,
2013-05-07 07:47:00,61.5,45.2,30.06,ENE,74,0.0,0.0,55,0.00,BKN,,0.00,WeatherDisplay:10.37,2013-05-07 12:47:00,
2013-05-07 07:52:00,61.9,42.5,30.06,ENE,74,0.0,0.0,49,0.00,BKN,,0.00,WeatherDisplay:10.37,2013-05-07 12:52:00,
2013-05-07 07:57:00,62.2,42.3,30.06,SSW,213,0.0,0.0,48,0.00,BKN,,0.00,WeatherDisplay:10.37,2013-05-07 12:57:00,
2013-05-07 08:02:00,62.4,42.4,30.06,SSW,213,0.0,0.0,48,0.00,BKN,,0.00,WeatherDisplay:10.37,2013-05-07 13:02:00,
2013-05-07 08:07:00,62.7,42.7,30.06,SSW,213,0.0,0.0,48,0.00,BKN,,0.00,WeatherDisplay:10.37,2013-05-07 13:07:00,
2013-05-07 08:12:00,62.9,41.8,30.06,SSW,208,2.2,4.6,46,0.00,BKN,,0.00,WeatherDisplay:10.37,2013-05-07 13:12:00,
2013-05-07 08:17:00,63.4,41.1,30.06,SSW,208,3.3,4.6,44,0.00,BKN,,0.00,WeatherDisplay:10.37,2013-05-07 13:17:00,
2013-05-07 08:22:00,63.5,41.2,30.06,South,187,3.8,4.6,44,0.00,BKN,,0.00,WeatherDisplay:10.37,2013-05-07 13:22:00,
2013-05-07 08:27:00,63.5,41.2,30.07,SW,225,2.5,4.6,44,0.00,BKN,,0.00,WeatherDisplay:10.37,2013-05-07 13:27:00,
2013-05-07 08:32:00,63.5,40.6,30.07,SSW,199,0.0,0.0,43,0.00,BKN,,0.00,WeatherDisplay:10.37,2013-05-07 13:32:00,
2013-05-07 08:37:00,63.7,41.9,30.07,SSW,199,0.0,0.0,45,0.00,BKN,,0.00,WeatherDisplay:10.37,2013-05-07 13:37:00,
2013-05-07 08:42:00,64.3,41.3,30.07,SSW,199,0.0,0.0,43,0.00,BKN,,0.00,WeatherDisplay:10.37,2013-05-07 13:42:00,
2013-05-07 08:47:00,65.1,42.0,30.07,SSW,199,0.0,0.0,43,0.00,BKN,,0.00,WeatherDisplay:10.37,2013-05-07 13:47:00,
2013-05-07 08:52:00,65.7,41.3,30.07,NE,38,1.6,2.3,41,0.00,BKN,,0.00,WeatherDisplay:10.37,2013-05-07 13:52:00,
2013-05-07 08:57:00,66.9,43.7,30.07,SE,139,0.4,1.5,43,0.00,BKN,,0.00,WeatherDisplay:10.37,2013-05-07 13:57:00,
2013-05-07 09:02:00,67.8,44.5,30.07,East,79,1.7,4.6,43,0.00,SCT,,0.00,WeatherDisplay:10.37,2013-05-07 14:02:00,
2013-05-07 09:07:00,68.1,42.9,30.07,SSE,148,1.7,2.3,40,0.00,SCT,,0.00,WeatherDisplay:10.37,2013-05-07 14:07:00,
2013-05-07 09:12:00,68.4,43.1,30.07,SE,132,2.1,3.5,40,0.00,SCT,,0.00,WeatherDisplay:10.37,2013-05-07 14:12:00,
2013-05-07 09:17:00,68.1,42.2,30.07,NE,41,3.7,4.6,39,0.00,SCT,,0.00,WeatherDisplay:10.37,2013-05-07 14:17:00,
2013-05-07 09:22:00,67.8,42.6,30.07,NNE,19,0.9,3.5,40,0.00,SCT,,0.00,WeatherDisplay:10.37,2013-05-07 14:22:00,
2013-05-07 09:27:00,68.0,42.1,30.07,ESE,115,2.5,3.5,39,0.00,SCT,,0.00,WeatherDisplay:10.37,2013-05-07 14:27:00,
2013-05-07 09:32:00,68.2,41.6,30.06,ENE,69,3.3,8.1,38,0.00,SCT,,0.00,WeatherDisplay:10.37,2013-05-07 14:32:00,
2013-05-07 09:37:00,68.4,41.8,30.06,SSE,157,1.9,5.8,38,0.00,SCT,,0.00,WeatherDisplay:10.37,2013-05-07 14:37:00,
2013-05-07 09:42:00,69.2,42.5,30.06,NE,44,2.2,4.6,38,0.00,SCT,,0.00,WeatherDisplay:10.37,2013-05-07 14:42:00,
2013-05-07 09:47:00,69.4,42.0,30.07,ENE,68,4.9,6.9,37,0.00,SCT,,0.00,WeatherDisplay:10.37,2013-05-07 14:47:00,
2013-05-07 09:52:00,68.9,40.8,30.06,ENE,58,5.3,6.9,36,0.00,SCT,,0.00,WeatherDisplay:10.37,2013-05-07 14:52:00,
2013-05-07 09:57:00,68.3,41.7,30.06,ENE,74,6.1,9.2,38,0.00,SCT,,0.00,WeatherDisplay:10.37,2013-05-07 14:57:00,
2013-05-07 10:02:00,68.6,43.3,30.06,East,99,3.6,6.9,40,0.00,SCT,,0.00,WeatherDisplay:10.37,2013-05-07 15:02:00,
2013-05-07 10:07:00,69.2,41.8,30.06,NNE,20,5.1,6.9,37,0.00,SCT,,0.00,WeatherDisplay:10.37,2013-05-07 15:07:00,
2013-05-07 10:12:00,69.3,42.6,30.06,East,79,2.2,3.5,38,0.00,SCT,,0.00,WeatherDisplay:10.37,2013-05-07 15:12:00,
2013-05-07 10:17:00,69.8,42.3,30.06,SE,136,5.0,6.9,37,0.00,SCT,,0.00,WeatherDisplay:10.37,2013-05-07 15:17:00,
2013-05-07 10:22:00,69.9,41.7,30.06,NNE,31,3.9,5.8,36,0.00,SCT,,0.00,WeatherDisplay:10.37,2013-05-07 15:22:00,
2013-05-07 10:27:00,70.7,39.4,30.06,ENE,71,2.2,3.5,32,0.00,SCT,,0.00,WeatherDisplay:10.37,2013-05-07 15:27:00,
2013-05-07 10:32:00,71.2,41.4,30.06,SSE,147,5.1,7.8,34,0.00,SCT,,0.00,WeatherDisplay:10.37,2013-05-07 15:32:00,
2013-05-07 10:37:00,71.6,42.5,30.06,ESE,117,4.7,9.2,35,0.00,SCT,,0.00,WeatherDisplay:10.37,2013-05-07 15:37:00,
2013-05-07 10:42:00,71.1,39.7,30.06,ESE,106,5.1,8.1,32,0.00,SCT,,0.00,WeatherDisplay:10.37,2013-05-07 15:42:00,
2013-05-07 10:47:00,70.8,41.0,30.06,NE,52,4.2,5.8,34,0.00,SCT,,0.00,WeatherDisplay:10.37,2013-05-07 15:47:00,
2013-05-07 10:52:00,71.5,41.6,30.06,ENE,57,4.8,9.0,34,0.00,SCT,,0.00,WeatherDisplay:10.37,2013-05-07 15:52:00,
2013-05-07 10:57:00,71.2,41.4,30.06,East,99,5.3,8.1,34,0.00,SCT,,0.00,WeatherDisplay:10.37,2013-05-07 15:57:00,
2013-05-07 11:02:00,71.0,42.0,30.06,ENE,76,4.3,6.9,35,0.00,SCT,,0.00,WeatherDisplay:10.37,2013-05-07 16:02:00,
2013-05-07 11:07:00,71.5,40.9,30.06,ENE,72,2.8,6.0,33,0.00,SCT,,0.00,WeatherDisplay:10.37,2013-05-07 16:07:00,
2013-05-07 11:12:00,71.5,43.8,30.06,SE,146,3.7,4.6,37,0.00,SCT,,0.00,WeatherDisplay:10.37,2013-05-07 16:12:00,
2013-05-07 11:17:00,71.4,40.0,30.06,East,86,2.8,4.7,32,0.00,SCT,,0.00,WeatherDisplay:10.37,2013-05-07 16:17:00,
2013-05-07 11:22:00,71.9,40.4,30.06,East,100,2.1,5.8,32,0.00,SCT,,0.00,WeatherDisplay:10.37,2013-05-07 16:22:00,
2013-05-07 11:27:00,72.7,38.6,30.06,East,82,3.8,6.9,29,0.00,SCT,,0.00,WeatherDisplay:10.37,2013-05-07 16:27:00,
2013-05-07 11:32:00,72.7,37.7,30.06,NNE,27,4.9,6.9,28,0.00,SCT,,0.00,WeatherDisplay:10.37,2013-05-07 16:32:00,
2013-05-07 11:37:00,71.8,34.1,30.06,SE,137,4.7,10.4,25,0.00,SCT,,0.00,WeatherDisplay:10.37,2013-05-07 16:37:00,
2013-05-07 11:42:00,72.5,38.4,30.06,SE,129,4.9,6.9,29,0.00,SCT,,0.00,WeatherDisplay:10.37,2013-05-07 16:42:00,
2013-05-07 11:47:00,73.0,38.0,30.06,ESE,116,3.0,5.8,28,0.00,SCT,,0.00,WeatherDisplay:10.37,2013-05-07 16:47:00,
2013-05-07 11:52:00,73.2,37.2,30.06,ENE,58,1.4,5.8,27,0.00,SCT,,0.00,WeatherDisplay:10.37,2013-05-07 16:52:00,
2013-05-07 11:57:00,73.7,36.7,30.05,East,88,4.5,5.8,26,0.00,SCT,,0.00,WeatherDisplay:10.37,2013-05-07 16:57:00,
2013-05-07 12:02:00,73.4,33.3,30.05,SE,132,4.2,8.1,23,0.00,SCT,,0.00,WeatherDisplay:10.37,2013-05-07 17:02:00,
2013-05-07 12:07:00,73.6,34.6,30.05,East,88,2.0,4.6,24,0.00,SCT,,0.00,WeatherDisplay:10.37,2013-05-07 17:07:00,
2013-05-07 12:12:00,73.8,32.6,30.05,SE,132,3.6,5.8,22,0.00,SCT,,0.00,WeatherDisplay:10.37,2013-05-07 17:12:00,
2013-05-07 12:17:00,74.5,33.1,30.05,NE,41,3.4,5.8,22,0.00,SCT,,0.00,WeatherDisplay:10.37,2013-05-07 17:17:00,
2013-05-07 12:22:00,74.3,34.1,30.05,East,91,1.7,4.6,23,0.00,SCT,,0.00,WeatherDisplay:10.37,2013-05-07 17:22:00,
2013-05-07 12:27:00,74.1,32.8,30.04,NE,52,1.0,2.5,22,0.00,SCT,,0.00,WeatherDisplay:10.37,2013-05-07 17:27:00,
2013-05-07 12:32:00,73.7,26.1,30.04,NE,44,3.6,6.9,17,0.00,SCT,,0.00,WeatherDisplay:10.37,2013-05-07 17:32:00,
2013-05-07 12:37:00,73.5,27.4,30.04,NNE,24,4.3,8.1,18,0.00,SCT,,0.00,WeatherDisplay:10.37,2013-05-07 17:37:00,
2013-05-07 12:42:00,73.7,31.3,30.04,ESE,109,4.6,8.1,21,0.00,SCT,,0.00,WeatherDisplay:10.37,2013-05-07 17:42:00,
2013-05-07 12:47:00,74.1,30.4,30.04,SE,132,0.0,0.0,20,0.00,SCT,,0.00,WeatherDisplay:10.37,2013-05-07 17:47:00,
2013-05-07 12:52:00,74.1,27.9,30.04,NE,52,5.7,8.1,18,0.00,SCT,,0.00,WeatherDisplay:10.37,2013-05-07 17:52:00,
2013-05-07 12:57:00,73.9,29.0,30.03,NE,51,2.4,7.1,19,0.00,SCT,,0.00,WeatherDisplay:10.37,2013-05-07 17:57:00,
2013-05-07 13:02:00,74.1,29.2,30.04,ENE,71,3.7,8.1,19,0.00,FEW,,0.00,WeatherDisplay:10.37,2013-05-07 18:02:00,
2013-05-07 13:07:00,74.4,30.7,30.04,NE,54,2.9,4.6,20,0.00,FEW,,0.00,WeatherDisplay:10.37,2013-05-07 18:07:00,
2013-05-07 13:12:00,74.0,29.1,30.04,NNE,31,0.9,5.8,19,0.00,FEW,,0.00,WeatherDisplay:10.37,2013-05-07 18:12:00,
2013-05-07 13:17:00,74.0,32.7,30.03,NE,50,6.7,9.2,22,0.00,FEW,,0.00,WeatherDisplay:10.37,2013-05-07 18:17:00,
2013-05-07 13:22:00,74.3,31.8,30.03,ESE,103,1.5,4.6,21,0.00,FEW,,0.00,WeatherDisplay:10.37,2013-05-07 18:22:00,
2013-05-07 13:27:00,75.1,31.3,30.03,South,182,4.8,6.9,20,0.00,FEW,,0.00,WeatherDisplay:10.37,2013-05-07 18:27:00,
2013-05-07 13:32:00,75.9,34.3,30.03,SE,134,4.0,5.8,22,0.00,FEW,,0.00,WeatherDisplay:10.37,2013-05-07 18:32:00,
2013-05-07 13:37:00,76.4,32.3,30.03,NE,44,2.0,4.6,20,0.00,FEW,,0.00,WeatherDisplay:10.37,2013-05-07 18:37:00,
2013-05-07 13:42:00,76.9,31.5,30.03,NNE,20,2.2,4.6,19,0.00,FEW,,0.00,WeatherDisplay:10.37,2013-05-07 18:42:00,
2013-05-07 13:47:00,77.0,36.3,30.03,ESE,119,3.5,8.1,23,0.00,FEW,,0.00,WeatherDisplay:10.37,2013-05-07 18:47:00,
2013-05-07 13:52:00,76.9,35.1,30.03,East,82,2.9,6.1,22,0.00,FEW,,0.00,WeatherDisplay:10.37,2013-05-07 18:52:00,
2013-05-07 13:57:00,76.2,30.9,30.03,ENE,74,3.7,4.6,19,0.00,FEW,,0.00,WeatherDisplay:10.37,2013-05-07 18:57:00,
2013-05-07 14:02:00,76.4,31.1,30.03,SSE,147,5.5,8.1,19,0.00,FEW,,0.00,WeatherDisplay:10.37,2013-05-07 19:02:00,
2013-05-07 14:07:00,77.0,30.2,30.03,WNW,297,1.9,3.5,18,0.00,FEW,,0.00,WeatherDisplay:10.37,2013-05-07 19:07:00,
2013-05-07 14:12:00,78.0,32.4,30.03,SSW,205,4.8,6.9,19,0.00,FEW,,0.00,WeatherDisplay:10.37,2013-05-07 19:12:00,
2013-05-07 14:17:00,78.4,30.0,30.02,ESE,109,0.1,0.0,17,0.00,FEW,,0.00,WeatherDisplay:10.37,2013-05-07 19:17:00,
2013-05-07 14:22:00,78.4,31.4,30.02,NNE,21,2.7,5.8,18,0.00,FEW,,0.00,WeatherDisplay:10.37,2013-05-07 19:22:00,
2013-05-07 14:27:00,77.7,32.1,30.02,SE,130,4.8,9.2,19,0.00,FEW,,0.00,WeatherDisplay:10.37,2013-05-07 19:27:00,
2013-05-07 14:32:00,76.8,31.4,30.02,East,92,3.2,6.9,19,0.00,FEW,,0.00,WeatherDisplay:10.37,2013-05-07 19:32:00,
2013-05-07 14:37:00,76.3,28.3,30.02,NNE,31,4.9,5.8,17,0.00,FEW,,0.00,WeatherDisplay:10.37,2013-05-07 19:37:00,
2013-05-07 14:42:00,76.4,28.3,30.02,NW,316,0.0,0.0,17,0.00,FEW,,0.00,WeatherDisplay:10.37,2013-05-07 19:42:00,
2013-05-07 14:47:00,76.8,33.9,30.02,ESE,110,3.3,5.8,21,0.00,FEW,,0.00,WeatherDisplay:10.37,2013-05-07 19:47:00,
2013-05-07 14:52:00,77.1,28.9,30.02,ESE,103,0.0,0.0,17,0.00,FEW,,0.00,WeatherDisplay:10.37,2013-05-07 19:52:00,
2013-05-07 14:57:00,77.5,27.7,30.01,SSW,201,3.6,6.9,16,0.00,FEW,,0.00,WeatherDisplay:10.37,2013-05-07 19:57:00,
2013-05-07 15:02:00,77.8,29.5,30.01,SE,139,3.8,9.2,17,0.00,FEW,,0.00,WeatherDisplay:10.37,2013-05-07 20:02:00,
2013-05-07 15:07:00,78.0,28.1,30.01,ENE,71,4.4,5.8,16,0.00,FEW,,0.00,WeatherDisplay:10.37,2013-05-07 20:07:00,
2013-05-07 15:12:00,76.6,25.5,30.01,NE,41,3.8,4.6,15,0.00,FEW,,0.00,WeatherDisplay:10.37,2013-05-07 20:12:00,
2013-05-07 15:17:00,76.1,26.6,30.01,NE,54,4.0,5.8,16,0.00,FEW,,0.00,WeatherDisplay:10.37,2013-05-07 20:17:00,
2013-05-07 15:22:00,76.4,28.3,30.01,SSE,151,2.8,4.6,17,0.00,FEW,,0.00,WeatherDisplay:10.37,2013-05-07 20:22:00,
2013-05-07 15:27:00,76.3,26.8,30.01,ENE,72,3.2,4.6,16,0.00,FEW,,0.00,WeatherDisplay:10.37,2013-05-07 20:27:00,
2013-05-07 15:32:00,76.3,32.3,30.01,SSW,202,1.4,3.5,20,0.00,FEW,,0.00,WeatherDisplay:10.37,2013-05-07 20:32:00,
2013-05-07 15:37:00,76.9,30.1,30.01,East,82,2.4,3.5,18,0.00,FEW,,0.00,WeatherDisplay:10.37,2013-05-07 20:37:00,
2013-05-07 15:42:00,77.2,29.0,30.01,East,82,2.1,4.8,17,0.00,FEW,,0.00,WeatherDisplay:10.37,2013-05-07 20:42:00,
2013-05-07 15:47:00,76.8,28.7,30.00,East,100,0.0,1.2,17,0.00,FEW,,0.00,WeatherDisplay:10.37,2013-05-07 20:47:00,
2013-05-07 15:52:00,77.2,27.5,30.00,West,263,0.8,2.3,16,0.00,FEW,,0.00,WeatherDisplay:10.37,2013-05-07 20:52:00,
2013-05-07 15:57:00,77.8,28.0,30.00,WSW,243,0.2,1.3,16,0.00,FEW,,0.00,WeatherDisplay:10.37,2013-05-07 20:57:00,
2013-05-07 16:02:00,78.4,28.5,30.00,WSW,240,0.6,1.2,16,0.00,FEW,,0.00,WeatherDisplay:10.37,2013-05-07 21:02:00,
2013-05-07 16:07:00,79.0,28.9,30.00,NE,34,0.2,2.4,16,0.00,FEW,,0.00,WeatherDisplay:10.37,2013-05-07 21:07:00,
2013-05-07 16:12:00,77.9,28.1,30.00,NE,44,2.4,5.2,16,0.00,FEW,,0.00,WeatherDisplay:10.37,2013-05-07 21:12:00,
2013-05-07 16:17:00,76.9,27.3,30.00,East,88,2.9,5.8,16,0.00,FEW,,0.00,WeatherDisplay:10.37,2013-05-07 21:17:00,
2013-05-07 16:22:00,76.3,28.3,30.00,West,281,0.4,2.3,17,0.00,FEW,,0.00,WeatherDisplay:10.37,2013-05-07 21:22:00,
2013-05-07 16:27:00,76.5,28.4,30.00,ESE,105,2.4,3.5,17,0.00,FEW,,0.00,WeatherDisplay:10.37,2013-05-07 21:27:00,
2013-05-07 16:32:00,76.9,28.7,30.00,ESE,105,0.0,0.0,17,0.00,FEW,,0.00,WeatherDisplay:10.37,2013-05-07 21:32:00,
2013-05-07 16:37:00,77.4,31.9,30.00,SE,143,2.8,4.6,19,0.00,FEW,,0.00,WeatherDisplay:10.37,2013-05-07 21:37:00,
2013-05-07 16:42:00,77.1,27.4,30.00,NE,54,2.5,3.5,16,0.00,FEW,,0.00,WeatherDisplay:10.37,2013-05-07 21:42:00,
2013-05-07 16:47:00,77.1,31.6,30.00,ESE,117,2.6,5.8,19,0.00,FEW,,0.00,WeatherDisplay:10.37,2013-05-07 21:47:00,
2013-05-07 16:52:00,77.0,27.3,29.99,South,178,1.5,2.3,16,0.00,FEW,,0.00,WeatherDisplay:10.37,2013-05-07 21:52:00,
2013-05-07 16:57:00,77.2,30.4,30.00,SSW,202,0.3,1.2,18,0.00,FEW,,0.00,WeatherDisplay:10.37,2013-05-07 21:57:00,
2013-05-07 17:02:00,77.4,27.7,29.99,West,266,2.9,4.6,16,0.00,FEW,,0.00,WeatherDisplay:10.37,2013-05-07 22:02:00,
2013-05-07 17:07:00,77.4,27.7,30.00,WSW,239,0.0,0.0,16,0.00,FEW,,0.00,WeatherDisplay:10.37,2013-05-07 22:07:00,
2013-05-07 17:12:00,78.0,29.6,30.00,SSE,154,0.0,0.0,17,0.00,FEW,,0.00,WeatherDisplay:10.37,2013-05-07 22:12:00,
2013-05-07 17:17:00,78.5,28.5,30.00,SSE,165,0.3,1.2,16,0.00,FEW,,0.00,WeatherDisplay:10.37,2013-05-07 22:17:00,
2013-05-07 17:22:00,78.5,28.5,29.99,ESE,106,0.8,2.3,16,0.00,FEW,,0.00,WeatherDisplay:10.37,2013-05-07 22:22:00,
2013-05-07 17:27:00,78.4,26.9,30.00,South,189,2.2,4.6,15,0.00,FEW,,0.00,WeatherDisplay:10.37,2013-05-07 22:27:00,
2013-05-07 17:32:00,78.1,28.2,30.00,ESE,123,1.7,2.3,16,0.00,FEW,,0.00,WeatherDisplay:10.37,2013-05-07 22:32:00,
2013-05-07 17:37:00,77.8,30.9,30.00,SSW,196,0.0,0.0,18,0.00,FEW,,0.00,WeatherDisplay:10.37,2013-05-07 22:37:00,
2013-05-07 17:42:00,77.9,28.1,29.99,SE,130,1.1,2.3,16,0.00,FEW,,0.00,WeatherDisplay:10.37,2013-05-07 22:42:00,
2013-05-07 17:47:00,77.9,26.5,30.00,SSE,150,0.3,2.3,15,0.00,FEW,,0.00,WeatherDisplay:10.37,2013-05-07 22:47:00,
2013-05-07 17:52:00,77.9,28.1,30.00,SSE,150,0.0,0.0,16,0.00,FEW,,0.00,WeatherDisplay:10.37,2013-05-07 22:52:00,
2013-05-07 17:57:00,77.8,29.5,30.00,SSE,151,0.2,1.2,17,0.00,FEW,,0.00,WeatherDisplay:10.37,2013-05-07 22:57:00,
2013-05-07 18:02:00,77.3,30.5,30.00,SSE,153,0.8,2.3,18,0.00,BKN,,0.00,WeatherDisplay:10.37,2013-05-07 23:02:00,
2013-05-07 18:07:00,77.0,28.8,29.99,SSE,153,0.0,0.0,17,0.00,BKN,,0.00,WeatherDisplay:10.37,2013-05-07 23:07:00,
2013-05-07 18:12:00,76.8,28.7,30.00,East,79,0.2,1.2,17,0.00,BKN,,0.00,WeatherDisplay:10.37,2013-05-07 23:12:00,
2013-05-07 18:17:00,77.2,29.0,29.99,East,79,0.0,0.0,17,0.00,BKN,,0.00,WeatherDisplay:10.37,2013-05-07 23:17:00,
2013-05-07 18:22:00,77.2,27.5,29.99,ENE,57,2.6,5.8,16,0.00,BKN,,0.00,WeatherDisplay:10.37,2013-05-07 23:22:00,
2013-05-07 18:27:00,76.0,30.7,29.99,ENE,71,3.9,5.8,19,0.00,BKN,,0.00,WeatherDisplay:10.37,2013-05-07 23:27:00,
2013-05-07 18:32:00,75.1,28.7,29.99,NE,55,3.1,4.6,18,0.00,BKN,,0.00,WeatherDisplay:10.37,2013-05-07 23:32:00,
2013-05-07 18:37:00,74.9,27.1,29.99,NE,40,3.3,4.6,17,0.00,BKN,,0.00,WeatherDisplay:10.37,2013-05-07 23:37:00,
2013-05-07 18:42:00,75.0,28.6,29.99,ENE,75,0.6,1.8,18,0.00,BKN,,0.00,WeatherDisplay:10.37,2013-05-07 23:42:00,
2013-05-07 18:47:00,74.8,29.8,29.99,NE,50,2.7,4.6,19,0.00,BKN,,0.00,WeatherDisplay:10.37,2013-05-07 23:47:00,
2013-05-07 18:52:00,74.9,29.8,29.99,ESE,102,1.5,2.3,19,0.00,BKN,,0.00,WeatherDisplay:10.37,2013-05-07 23:52:00,
2013-05-07 18:57:00,75.0,31.2,29.99,SE,124,0.0,0.0,20,0.00,BKN,,0.00,WeatherDisplay:10.37,2013-05-07 23:57:00,
2013-05-07 19:02:00,75.1,30.0,29.99,SE,124,0.0,0.0,19,0.00,BKN,,0.00,WeatherDisplay:10.37,2013-05-08 00:02:00,
2013-05-07 19:07:00,74.9,28.5,29.99,SE,124,0.0,0.0,18,0.00,BKN,,0.00,WeatherDisplay:10.37,2013-05-08 00:07:00,
2013-05-07 19:12:00,75.0,28.6,29.99,SE,124,0.0,0.0,18,0.00,BKN,,0.00,WeatherDisplay:10.37,2013-05-08 00:12:00,
2013-05-07 19:17:00,74.9,31.1,29.99,SE,124,0.0,0.0,20,0.00,BKN,,0.00,WeatherDisplay:10.37,2013-05-08 00:17:00,
2013-05-07 19:22:00,74.6,33.2,29.99,ENE,78,1.7,3.5,22,0.00,BKN,,0.00,WeatherDisplay:10.37,2013-05-08 00:22:00,
2013-05-07 19:27:00,74.0,33.8,29.99,SE,127,0.0,0.0,23,0.00,BKN,,0.00,WeatherDisplay:10.37,2013-05-08 00:27:00,
2013-05-07 19:32:00,73.3,33.2,29.99,SE,127,0.0,0.0,23,0.00,BKN,,0.00,WeatherDisplay:10.37,2013-05-08 00:32:00,
2013-05-07 19:37:00,72.6,34.7,29.99,SE,127,0.0,0.0,25,0.00,BKN,,0.00,WeatherDisplay:10.37,2013-05-08 00:37:00,
2013-05-07 19:42:00,72.1,34.3,29.99,SE,127,0.0,0.0,25,0.00,BKN,,0.00,WeatherDisplay:10.37,2013-05-08 00:42:00,
2013-05-07 19:47:00,71.8,34.1,29.99,SE,127,0.0,0.0,25,0.00,BKN,,0.00,WeatherDisplay:10.37,2013-05-08 00:47:00,
2013-05-07 19:52:00,71.5,34.8,29.99,SE,127,0.0,0.0,26,0.00,BKN,,0.00,WeatherDisplay:10.37,2013-05-08 00:52:00,
2013-05-07 19:57:00,71.2,35.5,29.99,SE,127,0.0,0.0,27,0.00,BKN,,0.00,WeatherDisplay:10.37,2013-05-08 00:57:00,
2013-05-07 20:02:00,70.7,36.0,29.99,SE,127,0.0,0.0,28,0.00,BKN,,0.00,WeatherDisplay:10.37,2013-05-08 01:02:00,
2013-05-07 20:07:00,70.2,35.5,29.99,SE,127,0.0,0.0,28,0.00,BKN,,0.00,WeatherDisplay:10.37,2013-05-08 01:07:00,
2013-05-07 20:12:00,69.6,35.9,30.00,SE,127,0.0,0.0,29,0.00,BKN,,0.00,WeatherDisplay:10.37,2013-05-08 01:12:00,
2013-05-07 20:17:00,69.2,35.6,30.00,SE,127,0.0,0.0,29,0.00,BKN,,0.00,WeatherDisplay:10.37,2013-05-08 01:17:00,
2013-05-07 20:22:00,68.7,35.1,30.00,SE,127,0.0,0.0,29,0.00,BKN,,0.00,WeatherDisplay:10.37,2013-05-08 01:22:00,
2013-05-07 20:27:00,68.3,36.5,30.00,SE,127,0.0,0.0,31,0.00,BKN,,0.00,WeatherDisplay:10.37,2013-05-08 01:27:00,
2013-05-07 20:32:00,67.9,35.3,30.00,SE,127,0.0,0.0,30,0.00,BKN,,0.00,WeatherDisplay:10.37,2013-05-08 01:32:00,
2013-05-07 20:37:00,67.4,35.7,30.00,SE,127,0.0,0.0,31,0.00,BKN,,0.00,WeatherDisplay:10.37,2013-05-08 01:37:00,
2013-05-07 20:42:00,67.0,36.1,30.00,SE,127,0.0,0.0,32,0.00,BKN,,0.00,WeatherDisplay:10.37,2013-05-08 01:42:00,
2013-05-07 20:47:00,66.6,36.6,30.00,SE,127,0.0,0.0,33,0.00,BKN,,0.00,WeatherDisplay:10.37,2013-05-08 01:47:00,
2013-05-07 20:52:00,66.2,36.2,30.00,SE,127,0.0,0.0,33,0.00,BKN,,0.00,WeatherDisplay:10.37,2013-05-08 01:52:00,
2013-05-07 20:57:00,65.9,36.0,30.00,SE,127,0.0,0.0,33,0.00,BKN,,0.00,WeatherDisplay:10.37,2013-05-08 01:57:00,
2013-05-07 21:02:00,65.6,37.2,30.00,SE,127,0.0,0.0,35,0.00,BKN,,0.00,WeatherDisplay:10.37,2013-05-08 02:02:00,
2013-05-07 21:07:00,65.2,37.6,30.00,SE,127,0.0,0.0,36,0.00,BKN,,0.00,WeatherDisplay:10.37,2013-05-08 02:07:00,
2013-05-07 21:12:00,64.7,37.1,30.00,SE,127,0.0,0.0,36,0.00,BKN,,0.00,WeatherDisplay:10.37,2013-05-08 02:12:00,
2013-05-07 21:17:00,64.2,36.7,30.00,SE,127,0.0,0.0,36,0.00,BKN,,0.00,WeatherDisplay:10.37,2013-05-08 02:17:00,
2013-05-07 21:22:00,63.9,36.4,30.00,SE,127,0.0,0.0,36,0.00,BKN,,0.00,WeatherDisplay:10.37,2013-05-08 02:22:00,
2013-05-07 21:27:00,64.0,35.8,30.01,SE,127,0.0,0.0,35,0.00,BKN,,0.00,WeatherDisplay:10.37,2013-05-08 02:27:00,
2013-05-07 21:32:00,64.1,35.9,30.01,SE,127,0.0,0.0,35,0.00,BKN,,0.00,WeatherDisplay:10.37,2013-05-08 02:32:00,
2013-05-07 21:37:00,64.3,36.0,30.01,SE,127,0.0,0.0,35,0.00,BKN,,0.00,WeatherDisplay:10.37,2013-05-08 02:37:00,
2013-05-07 21:42:00,64.3,36.0,30.01,SE,127,0.0,0.0,35,0.00,BKN,,0.00,WeatherDisplay:10.37,2013-05-08 02:42:00,
2013-05-07 21:47:00,64.3,36.0,30.01,SE,127,0.0,0.0,35,0.00,BKN,,0.00,WeatherDisplay:10.37,2013-05-08 02:47:00,
2013-05-07 21:52:00,64.3,36.8,30.01,SE,127,0.0,0.0,36,0.00,BKN,,0.00,WeatherDisplay:10.37,2013-05-08 02:52:00,
2013-05-07 21:57:00,64.1,35.9,30.01,SE,127,0.0,0.0,35,0.00,BKN,,0.00,WeatherDisplay:10.37,2013-05-08 02:57:00,
2013-05-07 22:02:00,64.2,35.2,30.01,SE,127,0.0,0.0,34,0.00,CLR,,0.00,WeatherDisplay:10.37,2013-05-08 03:02:00,
2013-05-07 22:07:00,63.4,39.3,30.01,NE,47,2.8,3.5,41,0.00,CLR,,0.00,WeatherDisplay:10.37,2013-05-08 03:07:00,
2013-05-07 22:12:00,62.2,38.8,30.01,NNE,27,0.0,0.0,42,0.00,CLR,,0.00,WeatherDisplay:10.37,2013-05-08 03:12:00,
2013-05-07 22:17:00,61.1,39.6,30.01,NNE,27,0.0,0.0,45,0.00,CLR,,0.00,WeatherDisplay:10.37,2013-05-08 03:17:00,
2013-05-07 22:22:00,60.3,38.9,30.02,NNE,27,0.0,0.0,45,0.00,CLR,,0.00,WeatherDisplay:10.37,2013-05-08 03:22:00,
2013-05-07 22:27:00,60.4,38.9,30.02,NNE,27,0.0,0.0,45,0.00,CLR,,0.00,WeatherDisplay:10.37,2013-05-08 03:27:00,
2013-05-07 22:32:00,60.9,38.8,30.02,NNE,27,0.0,0.0,44,0.00,CLR,,0.00,WeatherDisplay:10.37,2013-05-08 03:32:00,
2013-05-07 22:37:00,61.8,39.1,30.02,NNE,27,0.0,0.0,43,0.00,CLR,,0.00,WeatherDisplay:10.37,2013-05-08 03:37:00,
2013-05-07 22:42:00,62.1,38.7,30.02,NNE,27,0.0,0.0,42,0.00,CLR,,0.00,WeatherDisplay:10.37,2013-05-08 03:42:00,
2013-05-07 22:47:00,62.1,39.3,30.02,NNE,27,0.0,0.0,43,0.00,CLR,,0.00,WeatherDisplay:10.37,2013-05-08 03:47:00,
2013-05-07 22:52:00,61.9,39.1,30.02,NNE,27,0.0,0.0,43,0.00,CLR,,0.00,WeatherDisplay:10.37,2013-05-08 03:52:00,
2013-05-07 22:57:00,61.3,39.8,30.02,NNE,27,0.0,0.0,45,0.00,CLR,,0.00,WeatherDisplay:10.37,2013-05-08 03:57:00,
2013-05-07 23:01:00,61.1,39.6,30.02,NNE,27,0.0,0.0,45,0.00,CLR,,0.00,WeatherDisplay:10.37,2013-05-08 04:01:00,
2013-05-07 23:06:00,60.8,39.9,30.02,NNE,27,0.0,0.0,46,0.00,CLR,,0.00,WeatherDisplay:10.37,2013-05-08 04:06:00,
2013-05-07 23:11:00,61.1,40.1,30.02,NNE,27,0.0,0.0,46,0.00,CLR,,0.00,WeatherDisplay:10.37,2013-05-08 04:11:00,
2013-05-07 23:16:00,61.2,40.2,30.02,NNE,27,0.0,0.0,46,0.00,CLR,,0.00,WeatherDisplay:10.37,2013-05-08 04:16:00,
2013-05-07 23:21:00,61.3,40.9,30.02,NNE,27,0.0,0.0,47,0.00,CLR,,0.00,WeatherDisplay:10.37,2013-05-08 04:21:00,
2013-05-07 23:26:00,61.2,40.8,30.01,NNE,27,0.0,0.0,47,0.00,CLR,,0.00,WeatherDisplay:10.37,2013-05-08 04:26:00,
2013-05-07 23:31:00,61.2,41.3,30.01,SSE,150,0.5,2.2,48,0.00,CLR,,0.00,WeatherDisplay:10.37,2013-05-08 04:31:00,
2013-05-07 23:36:00,61.3,42.0,30.01,SE,133,0.0,0.0,49,0.00,CLR,,0.00,WeatherDisplay:10.37,2013-05-08 04:36:00,
2013-05-07 23:41:00,61.5,42.7,30.01,SE,134,0.0,0.0,50,0.00,CLR,,0.00,WeatherDisplay:10.37,2013-05-08 04:41:00,
2013-05-07 23:46:00,61.6,42.8,30.01,SE,136,0.5,2.7,50,0.00,CLR,,0.00,WeatherDisplay:10.37,2013-05-08 04:46:00,
2013-05-07 23:51:00,61.8,43.5,30.01,South,184,0.0,2.3,51,0.00,CLR,,0.00,WeatherDisplay:10.37,2013-05-08 04:51:00,
2013-05-07 23:56:00,61.8,43.5,30.01,South,171,2.2,3.5,51,0.00,CLR,,0.00,WeatherDisplay:10.37,2013-05-08 04:56:00,